• Join FlightAware (Why Join?)
  • Login
  • US Flag 
12:10AM EST


 

Airport Tracker/Info


-or-


 

Live Flight TrackerFlight Track Log ✈ FLG4222 ✈ 30-Sep-2013 ✈ KBGM - KDTW

Flight Track Log - Related Links

Times and Time Zones

All times are in EDT time to prevent confusion due to time zone crossing. See the FLG4222 flight status page for this flight to view local times or setup timezone preferences in your user account.

Time Position Orientation Groundspeed Altitude Reporting Facility
EDT Latitude Longitude Course Direction KTS MPH feet Rate Location/Type
11:54AM 42.1314 -76.1286 291° West 193 222 8,600  Level New York Center
11:55AM 42.1664 -76.2322 295° West 251 289 10,500 1,500 Climbing New York Center
11:56AM 42.2067 -76.3475 295° West 296 341 11,600 1,320 Climbing New York Center
11:57AM 42.2278 -76.6293 289° West  Level Estimated
11:57AM 42.2406 -76.4472 295° West 353 406 12,900  Level Cleveland Center
11:58AM 42.2806 -76.5717 294° West 360 414 14,000 480 Climbing Cleveland Center
11:59AM 42.3219 -76.6964 294° West 365 420 14,000 240 Level Cleveland Center
12:00PM 42.3619 -76.8208 294° West 364 419 14,500 900 Climbing Cleveland Center
12:01PM 42.4011 -76.9408 294° West 354 407 15,900 1,380 Climbing Cleveland Center
12:02PM 42.4492 -77.0931 293° West 363 418 17,400 1,200 Climbing Cleveland Center
12:03PM 42.4908 -77.2244 293° West 376 433 18,400 960 Climbing Cleveland Center
12:04PM 42.5333 -77.3586 293° West 385 443 19,500 960 Climbing Cleveland Center
12:05PM 42.5736 -77.4875 293° West 388 447 20,400 900 Climbing Cleveland Center
12:06PM 42.6161 -77.6233 293° West 389 448 21,400 960 Climbing Cleveland Center
12:07PM 42.6606 -77.7619 294° West 402 463 22,400 960 Climbing Cleveland Center
12:08PM 42.7000 -77.9225 289° West 405 466 23,500 720 Climbing Cleveland Center
12:09PM 42.7019 -78.0747 271° West 409 471 24,000 480 Climbing Cleveland Center
12:10PM 42.7044 -78.2325 271° West 413 475 24,500 480 Climbing Cleveland Center
12:11PM 42.7056 -78.3925 271° West 422 486 25,000 480 Climbing Cleveland Center
12:12PM 42.7100 -78.5869 272° West 433 498 25,600 480 Climbing Cleveland Center
12:13PM 42.7106 -78.7508 270° West 433 498 26,000 180 Climbing Cleveland Center
12:14PM 42.7117 -78.9178 271° West 442 509 26,000  Level Cleveland Center
12:15PM 42.7142 -79.0853 271° West 446 513 26,000  Level Cleveland Center
12:16PM 42.7142 -79.2550 270° West 450 518 26,000  Level Cleveland Center
12:17PM 42.7142 -79.4592 270° West 450 518 26,000  Level Cleveland Center
12:18PM 42.7136 -79.6297 270° West 452 520 26,000  Level Cleveland Center
12:19PM 42.7131 -79.7983 270° West 449 517 26,000  Level Cleveland Center
12:20PM 42.7133 -79.9714 270° West 444 511 26,000  Level Cleveland Center
12:21PM 42.7103 -80.1369 269° West 441 507 26,000  Level Cleveland Center
12:22PM 42.7094 -80.3058 270° West 442 509 26,000  Level Cleveland Center
12:24PM 42.7094 -80.4692 270° West 431 496 26,000  Level Cleveland Center
12:25PM 42.7078 -80.6575 269° West 424 488 26,000 -240 Level Cleveland Center
12:26PM 42.7072 -80.8214 270° West 430 495 25,600 -720 Descending Cleveland Center
12:27PM 42.6944 -80.9803 264° West 422 486 24,600 -780 Descending Cleveland Center
12:28PM 42.6781 -81.1375 262° West 418 481 24,000 -300 Descending Cleveland Center
12:29PM 42.6603 -81.2919 261° West 413 475 24,000  Level Cleveland Center
12:30PM 42.6417 -81.4472 261° West 415 478 24,000 -180 Level Cleveland Center
12:31PM 42.6250 -81.5969 261° West 398 458 23,700 -1,140 Descending Cleveland Center
12:32PM 42.6056 -81.7519 260° West 361 415 21,700 -1,800 Descending Cleveland Center
12:33PM 42.5900 -81.8836 261° West 352 405 20,000 -1,560 Descending Cleveland Center
12:34PM 42.5758 -82.0039 261° West 330 380 18,500 -1,440 Descending Cleveland Center
12:35PM 42.5603 -82.1239 260° West 325 374 17,100 -1,500 Descending Cleveland Center
12:36PM 42.5517 -82.2153 263° West 317 365 15,900 -1,500 Descending Cleveland Center
12:36PM 42.5456 -82.2392 251° West 315 362 15,600 -1,560 Descending Cleveland Center
12:36PM 42.5397 -82.2986 262° West 302 348 14,800 -1,380 Descending Cleveland Center
12:37PM 42.5322 -82.3489 259° West 302 348 14,200 -1,200 Descending Cleveland Center
12:37PM 42.5250 -82.4214 262° West 295 339 13,500 -1,380 Descending Cleveland Center
12:38PM 42.5158 -82.4783 258° West 294 338 12,800 -1,320 Descending Cleveland Center
12:38PM 42.5125 -82.5103 262° West 286 329 12,400 -780 Descending Cleveland Center
12:39PM 42.4947 -82.5778 250° West 281 323 12,000 -540 Descending Cleveland Center
12:39PM 42.4842 -82.6142 249° West 237 273 11,800 -1,020 Descending Cleveland Center
12:40PM 42.4606 -82.6581 234° Southwest 252 290 11,000 -1,320 Descending Cleveland Center
12:40PM 42.4494 -82.6889 244° Southwest 230 265 10,500 -1,260 Descending Cleveland Center
12:41PM 42.4283 -82.7281 234° Southwest 230 265 9,700 -1,500 Descending Cleveland Center
12:41PM 42.4150 -82.7606 241° Southwest 220 253 9,000 -1,500 Descending Cleveland Center
12:42PM 42.3953 -82.7972 234° Southwest 222 255 8,200 -1,140 Descending Cleveland Center
12:42PM 42.3828 -82.8297 243° Southwest 220 253 7,900 -780 Descending Cleveland Center
12:43PM 42.3611 -82.8594 225° Southwest 210 242 7,400 -900 Descending Cleveland Center
12:43PM 42.3433 -82.8839 225° Southwest 191 220 7,000 -420 Descending Cleveland Center
12:44PM 42.3161 -82.9208 225° Southwest 194 223 7,000  Level Cleveland Center
12:44PM 42.3058 -82.9381 231° Southwest 193 222 7,000  Level Cleveland Center
12:45PM 42.2789 -82.9733 224° Southwest 193 222 7,000  Level Cleveland Center
12:46PM 42.2683 -82.9922 233° Southwest 194 223 7,000  Level Cleveland Center
12:46PM 42.2419 -83.0250 223° Southwest 192 221 7,000  Level Cleveland Center
12:47PM 42.2308 -83.0436 231° Southwest 196 226 7,000  Level Cleveland Center
12:47PM 42.2353 -83.0906 277° West 209 241 7,000  Level Cleveland Center
12:47PM 42.2428 -83.1072 301° West 209 241 7,000 -420 Level Cleveland Center
12:48PM 42.2789 -83.1317 333° Northwest 224 258 6,600 -540 Descending Cleveland Center
12:48PM 42.2894 -83.1278 15° North 235 270 6,500 -600 Descending Cleveland Center
12:49PM 42.3356 -83.0922 30° Northeast 231 266 6,000 -540 Descending Cleveland Center
12:49PM 42.3472 -83.0847 25° Northeast 223 257 6,000  Level Cleveland Center
12:50PM 42.3956 -83.0481 29° Northeast 213 245 6,000  Level Cleveland Center
12:51PM 42.4006 -83.0442 30° Northeast 202 232 6,000  Level Cleveland Center
12:51PM 42.4414 -83.0036 36° Northeast 205 236 6,000  Level Cleveland Center
12:52PM 42.4544 -82.9950 26° Northeast 207 238 6,000  Level Cleveland Center
12:52PM 42.4900 -82.9614 35° Northeast 206 237 6,000  Level Cleveland Center
12:53PM 42.5069 -82.9653 350° North 203 234 6,000  Level Cleveland Center
12:55PM 42.5214 -83.0806 280° West 162 186 6,000  Level Cleveland Center
12:56PM 42.4953 -83.1222 230° Southwest 159 183 6,000  Level Cleveland Center
12:56PM 42.4925 -83.1222 180° South 159 183 6,000  Level Cleveland Center
12:57PM 42.4569 -83.1564 215° Southwest 160 184 6,000  Level Cleveland Center
12:57PM 42.4572 -83.1558 56° Northeast 159 183 6,000 -840 Level Cleveland Center
12:58PM 42.4189 -83.1881 212° Southwest 157 181 5,200 -780 Descending Cleveland Center
12:58PM 42.4178 -83.1858 124° Southeast 161 185 5,200 -840 Level Cleveland Center
12:59PM 42.3747 -83.2186 209° Southwest 159 183 4,300 -840 Descending Cleveland Center
01:00PM 42.3403 -83.2431 208° Southwest 160 184 3,500 -900 Descending Cleveland Center
01:01PM 42.2969 -83.2756 209° Southwest 157 181 2,500 -900 Descending Cleveland Center
01:01PM 42.3014 -83.2708 38° Northeast 158 182 2,600 -780 Climbing Cleveland Center
01:02PM 42.2656 -83.3022 213° Southwest 141 162 1,800 -780 Descending Cleveland Center
01:02PM 42.2647 -83.2997 114° Southeast 155 178 1,800 -840 Level Cleveland Center
01:03PM 42.2303 -83.3253 209° Southwest 140 161 1,000 -600 Descending Cleveland Center
01:03PM 42.2278 -83.3258 189° South 146 168 1,200 960 Climbing Cleveland Center